sensor_id;sensor_type;location;lat;lon;timestamp;P1;durP1;ratioP1;P2;durP2;ratioP2
54125;SDS011;40360;52.992;6.796;2022-09-09T00:00:23;14.52;;;10.25;;
54125;SDS011;40360;52.992;6.796;2022-09-09T00:02:54;11.48;;;8.30;;
54125;SDS011;40360;52.992;6.796;2022-09-09T00:05:36;12.25;;;9.32;;
54125;SDS011;40360;52.992;6.796;2022-09-09T00:08:19;13.55;;;10.43;;
54125;SDS011;40360;52.992;6.796;2022-09-09T00:10:49;11.77;;;10.18;;
54125;SDS011;40360;52.992;6.796;2022-09-09T00:16:21;11.68;;;8.38;;
54125;SDS011;40360;52.992;6.796;2022-09-09T00:21:43;11.88;;;9.07;;
54125;SDS011;40360;52.992;6.796;2022-09-09T00:24:38;11.48;;;8.35;;
54125;SDS011;40360;52.992;6.796;2022-09-09T00:27:13;11.52;;;9.10;;
54125;SDS011;40360;52.992;6.796;2022-09-09T00:30:12;12.77;;;9.00;;
54125;SDS011;40360;52.992;6.796;2022-09-09T00:32:38;9.98;;;7.80;;
54125;SDS011;40360;52.992;6.796;2022-09-09T00:35:18;8.45;;;7.65;;
54125;SDS011;40360;52.992;6.796;2022-09-09T00:37:50;11.38;;;7.78;;
54125;SDS011;40360;52.992;6.796;2022-09-09T00:40:26;13.23;;;10.23;;
54125;SDS011;40360;52.992;6.796;2022-09-09T00:43:24;21.27;;;11.35;;
54125;SDS011;40360;52.992;6.796;2022-09-09T00:46:10;18.10;;;10.75;;
54125;SDS011;40360;52.992;6.796;2022-09-09T00:52:08;12.73;;;10.57;;
54125;SDS011;40360;52.992;6.796;2022-09-09T00:57:27;17.38;;;11.35;;
54125;SDS011;40360;52.992;6.796;2022-09-09T01:04:53;13.50;;;9.85;;
54125;SDS011;40360;52.992;6.796;2022-09-09T01:07:20;19.17;;;12.63;;
54125;SDS011;40360;52.992;6.796;2022-09-09T01:09:55;26.27;;;13.68;;
54125;SDS011;40360;52.992;6.796;2022-09-09T01:12:24;14.23;;;11.02;;
54125;SDS011;40360;52.992;6.796;2022-09-09T01:14:58;17.08;;;11.40;;
54125;SDS011;40360;52.992;6.796;2022-09-09T01:17:37;23.13;;;12.25;;
54125;SDS011;40360;52.992;6.796;2022-09-09T01:20:12;17.10;;;11.32;;
54125;SDS011;40360;52.992;6.796;2022-09-09T01:27:46;13.48;;;9.48;;
54125;SDS011;40360;52.992;6.796;2022-09-09T01:30:15;14.80;;;10.88;;
54125;SDS011;40360;52.992;6.796;2022-09-09T01:32:43;16.45;;;11.98;;
54125;SDS011;40360;52.992;6.796;2022-09-09T01:37:57;17.23;;;10.43;;
54125;SDS011;40360;52.992;6.796;2022-09-09T01:40:23;15.40;;;10.27;;
54125;SDS011;40360;52.992;6.796;2022-09-09T01:42:51;13.77;;;11.30;;
54125;SDS011;40360;52.992;6.796;2022-09-09T01:45:17;13.60;;;10.32;;
54125;SDS011;40360;52.992;6.796;2022-09-09T01:47:43;12.75;;;10.40;;
54125;SDS011;40360;52.992;6.796;2022-09-09T01:50:10;14.07;;;10.32;;
54125;SDS011;40360;52.992;6.796;2022-09-09T01:52:39;15.77;;;10.30;;
54125;SDS011;40360;52.992;6.796;2022-09-09T01:55:06;18.25;;;11.13;;
54125;SDS011;40360;52.992;6.796;2022-09-09T01:57:39;16.02;;;10.60;;
54125;SDS011;40360;52.992;6.796;2022-09-09T02:00:30;13.52;;;9.38;;
54125;SDS011;40360;52.992;6.796;2022-09-09T02:05:52;14.32;;;9.35;;
54125;SDS011;40360;52.992;6.796;2022-09-09T02:08:42;12.57;;;9.57;;
54125;SDS011;40360;52.992;6.796;2022-09-09T02:11:19;13.23;;;9.13;;
54125;SDS011;40360;52.992;6.796;2022-09-09T02:13:48;12.88;;;9.25;;
54125;SDS011;40360;52.992;6.796;2022-09-09T02:21:18;15.88;;;10.70;;
54125;SDS011;40360;52.992;6.796;2022-09-09T02:23:44;13.90;;;9.73;;
54125;SDS011;40360;52.992;6.796;2022-09-09T02:26:12;13.95;;;10.30;;
54125;SDS011;40360;52.992;6.796;2022-09-09T02:28:44;12.50;;;9.65;;
54125;SDS011;40360;52.992;6.796;2022-09-09T02:31:12;11.30;;;9.65;;
54125;SDS011;40360;52.992;6.796;2022-09-09T02:33:41;10.18;;;8.45;;
54125;SDS011;40360;52.992;6.796;2022-09-09T02:36:10;15.52;;;9.30;;
54125;SDS011;40360;52.992;6.796;2022-09-09T02:38:40;12.13;;;9.05;;
54125;SDS011;40360;52.992;6.796;2022-09-09T02:41:15;12.35;;;8.27;;
54125;SDS011;40360;52.992;6.796;2022-09-09T02:43:49;13.82;;;8.63;;
54125;SDS011;40360;52.992;6.796;2022-09-09T02:49:27;11.35;;;8.40;;
54125;SDS011;40360;52.992;6.796;2022-09-09T02:52:11;11.93;;;8.90;;
54125;SDS011;40360;52.992;6.796;2022-09-09T02:54:41;12.77;;;8.02;;
54125;SDS011;40360;52.992;6.796;2022-09-09T02:57:19;14.18;;;8.02;;
54125;SDS011;40360;52.992;6.796;2022-09-09T02:59:52;15.45;;;9.00;;
54125;SDS011;40360;52.992;6.796;2022-09-09T03:02:19;12.38;;;8.80;;
54125;SDS011;40360;52.992;6.796;2022-09-09T03:04:45;9.98;;;8.25;;
54125;SDS011;40360;52.992;6.796;2022-09-09T03:07:15;14.00;;;9.10;;
54125;SDS011;40360;52.992;6.796;2022-09-09T03:09:42;11.65;;;8.55;;
54125;SDS011;40360;52.992;6.796;2022-09-09T03:12:08;9.90;;;8.10;;
54125;SDS011;40360;52.992;6.796;2022-09-09T03:14:34;10.43;;;7.85;;
54125;SDS011;40360;52.992;6.796;2022-09-09T03:17:00;12.55;;;7.85;;
54125;SDS011;40360;52.992;6.796;2022-09-09T03:19:27;10.88;;;8.10;;
54125;SDS011;40360;52.992;6.796;2022-09-09T03:21:53;10.00;;;7.30;;
54125;SDS011;40360;52.992;6.796;2022-09-09T03:24:19;10.32;;;6.97;;
54125;SDS011;40360;52.992;6.796;2022-09-09T03:26:45;8.73;;;7.00;;
54125;SDS011;40360;52.992;6.796;2022-09-09T03:29:11;10.93;;;6.60;;
54125;SDS011;40360;52.992;6.796;2022-09-09T03:31:37;8.93;;;6.75;;
54125;SDS011;40360;52.992;6.796;2022-09-09T03:34:03;11.73;;;7.55;;
54125;SDS011;40360;52.992;6.796;2022-09-09T03:36:29;9.52;;;7.05;;
54125;SDS011;40360;52.992;6.796;2022-09-09T03:38:55;8.63;;;6.90;;
54125;SDS011;40360;52.992;6.796;2022-09-09T03:41:24;13.15;;;8.23;;
54125;SDS011;40360;52.992;6.796;2022-09-09T03:43:51;11.48;;;9.00;;
54125;SDS011;40360;52.992;6.796;2022-09-09T03:46:17;10.13;;;9.00;;
54125;SDS011;40360;52.992;6.796;2022-09-09T03:48:44;10.15;;;7.28;;
54125;SDS011;40360;52.992;6.796;2022-09-09T03:51:09;11.23;;;7.90;;
54125;SDS011;40360;52.992;6.796;2022-09-09T03:53:35;9.45;;;6.72;;
54125;SDS011;40360;52.992;6.796;2022-09-09T03:56:02;9.35;;;7.00;;
54125;SDS011;40360;52.992;6.796;2022-09-09T03:58:31;11.90;;;7.40;;
54125;SDS011;40360;52.992;6.796;2022-09-09T04:03:24;15.63;;;9.02;;
54125;SDS011;40360;52.992;6.796;2022-09-09T04:05:51;11.00;;;7.55;;
54125;SDS011;40360;52.992;6.796;2022-09-09T04:08:17;11.40;;;8.65;;
54125;SDS011;40360;52.992;6.796;2022-09-09T04:10:45;11.55;;;8.02;;
54125;SDS011;40360;52.992;6.796;2022-09-09T04:13:12;12.20;;;8.35;;
54125;SDS011;40360;52.992;6.796;2022-09-09T04:15:39;12.45;;;8.00;;
54125;SDS011;40360;52.992;6.796;2022-09-09T04:18:05;11.68;;;8.90;;
54125;SDS011;40360;52.992;6.796;2022-09-09T04:20:31;11.77;;;9.85;;
54125;SDS011;40360;52.992;6.796;2022-09-09T04:22:57;11.02;;;9.35;;
54125;SDS011;40360;52.992;6.796;2022-09-09T04:25:23;14.18;;;9.90;;
54125;SDS011;40360;52.992;6.796;2022-09-09T04:27:53;16.17;;;9.73;;
54125;SDS011;40360;52.992;6.796;2022-09-09T04:30:19;13.18;;;9.60;;
54125;SDS011;40360;52.992;6.796;2022-09-09T04:32:45;12.38;;;9.32;;
54125;SDS011;40360;52.992;6.796;2022-09-09T04:35:11;10.10;;;9.10;;
54125;SDS011;40360;52.992;6.796;2022-09-09T04:37:37;9.68;;;8.48;;
54125;SDS011;40360;52.992;6.796;2022-09-09T04:40:03;11.38;;;9.55;;
54125;SDS011;40360;52.992;6.796;2022-09-09T04:42:29;12.20;;;8.35;;
54125;SDS011;40360;52.992;6.796;2022-09-09T04:44:54;10.52;;;8.35;;
54125;SDS011;40360;52.992;6.796;2022-09-09T04:47:20;10.32;;;8.35;;
54125;SDS011;40360;52.992;6.796;2022-09-09T04:49:46;9.85;;;8.23;;
54125;SDS011;40360;52.992;6.796;2022-09-09T04:52:12;14.88;;;9.77;;
54125;SDS011;40360;52.992;6.796;2022-09-09T04:54:38;14.85;;;8.80;;
54125;SDS011;40360;52.992;6.796;2022-09-09T04:57:04;12.93;;;10.13;;
54125;SDS011;40360;52.992;6.796;2022-09-09T04:59:30;13.75;;;10.02;;
54125;SDS011;40360;52.992;6.796;2022-09-09T05:01:55;15.85;;;10.10;;
54125;SDS011;40360;52.992;6.796;2022-09-09T05:20:59;13.25;;;10.95;;
54125;SDS011;40360;52.992;6.796;2022-09-09T05:23:25;14.50;;;10.23;;
54125;SDS011;40360;52.992;6.796;2022-09-09T05:25:55;13.05;;;10.10;;
54125;SDS011;40360;52.992;6.796;2022-09-09T05:28:21;16.02;;;11.13;;
54125;SDS011;40360;52.992;6.796;2022-09-09T05:30:55;14.95;;;10.45;;
54125;SDS011;40360;52.992;6.796;2022-09-09T05:33:22;13.15;;;10.25;;
54125;SDS011;40360;52.992;6.796;2022-09-09T05:35:54;13.48;;;10.95;;
54125;SDS011;40360;52.992;6.796;2022-09-09T05:38:21;11.52;;;10.18;;
54125;SDS011;40360;52.992;6.796;2022-09-09T05:40:49;13.82;;;10.95;;
54125;SDS011;40360;52.992;6.796;2022-09-09T05:43:15;13.88;;;10.20;;
54125;SDS011;40360;52.992;6.796;2022-09-09T05:45:40;13.07;;;10.25;;
54125;SDS011;40360;52.992;6.796;2022-09-09T05:48:06;12.30;;;10.73;;
54125;SDS011;40360;52.992;6.796;2022-09-09T05:50:32;11.23;;;9.23;;
54125;SDS011;40360;52.992;6.796;2022-09-09T05:52:58;12.23;;;9.77;;
54125;SDS011;40360;52.992;6.796;2022-09-09T05:55:24;14.05;;;9.70;;
54125;SDS011;40360;52.992;6.796;2022-09-09T05:57:50;13.55;;;10.55;;
54125;SDS011;40360;52.992;6.796;2022-09-09T06:00:16;14.77;;;10.90;;
54125;SDS011;40360;52.992;6.796;2022-09-09T06:02:43;10.85;;;9.73;;
54125;SDS011;40360;52.992;6.796;2022-09-09T06:05:08;13.90;;;10.43;;
54125;SDS011;40360;52.992;6.796;2022-09-09T06:07:35;15.10;;;9.82;;
54125;SDS011;40360;52.992;6.796;2022-09-09T06:10:02;13.13;;;9.77;;
54125;SDS011;40360;52.992;6.796;2022-09-09T06:12:28;10.05;;;8.55;;
54125;SDS011;40360;52.992;6.796;2022-09-09T06:14:53;10.38;;;9.18;;
54125;SDS011;40360;52.992;6.796;2022-09-09T06:17:19;12.52;;;9.77;;
54125;SDS011;40360;52.992;6.796;2022-09-09T06:19:44;10.07;;;8.93;;
54125;SDS011;40360;52.992;6.796;2022-09-09T06:22:10;9.65;;;8.52;;
54125;SDS011;40360;52.992;6.796;2022-09-09T06:24:37;14.60;;;9.32;;
54125;SDS011;40360;52.992;6.796;2022-09-09T06:27:03;11.98;;;9.55;;
54125;SDS011;40360;52.992;6.796;2022-09-09T06:29:30;9.70;;;8.68;;
54125;SDS011;40360;52.992;6.796;2022-09-09T06:31:56;9.70;;;8.27;;
54125;SDS011;40360;52.992;6.796;2022-09-09T06:34:21;15.60;;;9.60;;
54125;SDS011;40360;52.992;6.796;2022-09-09T06:36:47;11.43;;;7.75;;
54125;SDS011;40360;52.992;6.796;2022-09-09T06:39:12;12.52;;;9.77;;
54125;SDS011;40360;52.992;6.796;2022-09-09T06:41:40;10.27;;;7.68;;
54125;SDS011;40360;52.992;6.796;2022-09-09T06:44:07;9.52;;;7.68;;
54125;SDS011;40360;52.992;6.796;2022-09-09T06:46:33;12.50;;;8.63;;
54125;SDS011;40360;52.992;6.796;2022-09-09T06:49:00;9.95;;;8.82;;
54125;SDS011;40360;52.992;6.796;2022-09-09T06:51:28;10.98;;;8.10;;
54125;SDS011;40360;52.992;6.796;2022-09-09T06:53:59;10.57;;;7.15;;
54125;SDS011;40360;52.992;6.796;2022-09-09T06:58:53;10.07;;;7.57;;
54125;SDS011;40360;52.992;6.796;2022-09-09T07:01:21;8.32;;;6.70;;
54125;SDS011;40360;52.992;6.796;2022-09-09T07:03:52;11.95;;;8.00;;
54125;SDS011;40360;52.992;6.796;2022-09-09T07:06:26;7.43;;;6.60;;
54125;SDS011;40360;52.992;6.796;2022-09-09T07:09:14;10.48;;;7.35;;
54125;SDS011;40360;52.992;6.796;2022-09-09T07:11:42;8.68;;;6.53;;
54125;SDS011;40360;52.992;6.796;2022-09-09T07:14:13;6.95;;;6.25;;
54125;SDS011;40360;52.992;6.796;2022-09-09T07:16:42;10.23;;;6.78;;
54125;SDS011;40360;52.992;6.796;2022-09-09T07:19:08;10.10;;;7.13;;
54125;SDS011;40360;52.992;6.796;2022-09-09T07:21:34;11.07;;;7.13;;
54125;SDS011;40360;52.992;6.796;2022-09-09T07:24:00;7.10;;;5.70;;
54125;SDS011;40360;52.992;6.796;2022-09-09T07:26:27;6.95;;;5.95;;
54125;SDS011;40360;52.992;6.796;2022-09-09T07:28:54;14.95;;;7.35;;
54125;SDS011;40360;52.992;6.796;2022-09-09T07:31:24;10.23;;;6.43;;
54125;SDS011;40360;52.992;6.796;2022-09-09T07:33:55;8.63;;;6.00;;
54125;SDS011;40360;52.992;6.796;2022-09-09T07:36:22;6.40;;;5.80;;
54125;SDS011;40360;52.992;6.796;2022-09-09T07:38:52;7.72;;;6.07;;
54125;SDS011;40360;52.992;6.796;2022-09-09T07:41:20;9.65;;;6.43;;
54125;SDS011;40360;52.992;6.796;2022-09-09T07:43:48;11.30;;;6.55;;
54125;SDS011;40360;52.992;6.796;2022-09-09T07:46:15;8.00;;;6.45;;
54125;SDS011;40360;52.992;6.796;2022-09-09T07:48:45;9.35;;;5.82;;
54125;SDS011;40360;52.992;6.796;2022-09-09T07:51:16;11.35;;;6.07;;
54125;SDS011;40360;52.992;6.796;2022-09-09T07:53:45;8.82;;;6.03;;
54125;SDS011;40360;52.992;6.796;2022-09-09T07:56:12;7.35;;;5.53;;
54125;SDS011;40360;52.992;6.796;2022-09-09T07:58:41;9.75;;;6.32;;
54125;SDS011;40360;52.992;6.796;2022-09-09T08:01:10;7.10;;;5.72;;
54125;SDS011;40360;52.992;6.796;2022-09-09T08:03:37;8.20;;;4.95;;
54125;SDS011;40360;52.992;6.796;2022-09-09T08:06:04;8.48;;;6.25;;
54125;SDS011;40360;52.992;6.796;2022-09-09T08:08:32;8.60;;;5.78;;
54125;SDS011;40360;52.992;6.796;2022-09-09T08:11:08;7.88;;;5.85;;
54125;SDS011;40360;52.992;6.796;2022-09-09T08:13:39;9.07;;;5.78;;
54125;SDS011;40360;52.992;6.796;2022-09-09T08:16:10;10.38;;;6.10;;
54125;SDS011;40360;52.992;6.796;2022-09-09T08:18:38;10.30;;;5.20;;
54125;SDS011;40360;52.992;6.796;2022-09-09T08:21:05;8.35;;;6.00;;
54125;SDS011;40360;52.992;6.796;2022-09-09T08:23:31;8.48;;;6.25;;
54125;SDS011;40360;52.992;6.796;2022-09-09T08:26:03;7.75;;;4.97;;
54125;SDS011;40360;52.992;6.796;2022-09-09T08:28:29;6.97;;;5.43;;
54125;SDS011;40360;52.992;6.796;2022-09-09T08:30:56;10.13;;;5.80;;
54125;SDS011;40360;52.992;6.796;2022-09-09T08:33:29;7.32;;;4.63;;
54125;SDS011;40360;52.992;6.796;2022-09-09T08:35:55;8.82;;;5.68;;
54125;SDS011;40360;52.992;6.796;2022-09-09T08:38:21;6.30;;;5.32;;
54125;SDS011;40360;52.992;6.796;2022-09-09T08:40:46;10.63;;;5.60;;
54125;SDS011;40360;52.992;6.796;2022-09-09T08:43:14;10.40;;;5.75;;
54125;SDS011;40360;52.992;6.796;2022-09-09T08:45:50;7.57;;;4.47;;
54125;SDS011;40360;52.992;6.796;2022-09-09T08:51:06;5.43;;;4.93;;
54125;SDS011;40360;52.992;6.796;2022-09-09T08:53:42;9.98;;;4.65;;
54125;SDS011;40360;52.992;6.796;2022-09-09T08:56:12;8.00;;;4.57;;
54125;SDS011;40360;52.992;6.796;2022-09-09T08:58:48;5.78;;;4.18;;
54125;SDS011;40360;52.992;6.796;2022-09-09T09:06:50;9.55;;;5.35;;
54125;SDS011;40360;52.992;6.796;2022-09-09T09:12:18;8.90;;;4.60;;
54125;SDS011;40360;52.992;6.796;2022-09-09T09:14:46;9.25;;;4.72;;
54125;SDS011;40360;52.992;6.796;2022-09-09T09:17:17;8.63;;;4.43;;
54125;SDS011;40360;52.992;6.796;2022-09-09T09:19:45;7.65;;;3.95;;
54125;SDS011;40360;52.992;6.796;2022-09-09T09:22:22;5.65;;;3.88;;
54125;SDS011;40360;52.992;6.796;2022-09-09T09:25:05;8.90;;;4.38;;
54125;SDS011;40360;52.992;6.796;2022-09-09T09:30:40;6.22;;;3.70;;
54125;SDS011;40360;52.992;6.796;2022-09-09T09:36:01;10.32;;;4.28;;
54125;SDS011;40360;52.992;6.796;2022-09-09T09:38:28;11.18;;;3.63;;
54125;SDS011;40360;52.992;6.796;2022-09-09T09:40:58;8.27;;;3.75;;
54125;SDS011;40360;52.992;6.796;2022-09-09T09:43:28;10.52;;;3.65;;
54125;SDS011;40360;52.992;6.796;2022-09-09T09:46:03;11.68;;;4.43;;
54125;SDS011;40360;52.992;6.796;2022-09-09T09:48:29;10.05;;;4.93;;
54125;SDS011;40360;52.992;6.796;2022-09-09T09:53:32;15.95;;;4.72;;
54125;SDS011;40360;52.992;6.796;2022-09-09T09:56:08;9.10;;;3.08;;
54125;SDS011;40360;52.992;6.796;2022-09-09T09:58:54;6.63;;;3.78;;
54125;SDS011;40360;52.992;6.796;2022-09-09T10:03:51;8.52;;;2.97;;
54125;SDS011;40360;52.992;6.796;2022-09-09T10:06:28;7.88;;;3.42;;
54125;SDS011;40360;52.992;6.796;2022-09-09T10:08:58;8.93;;;3.20;;
54125;SDS011;40360;52.992;6.796;2022-09-09T10:11:38;10.27;;;3.70;;
54125;SDS011;40360;52.992;6.796;2022-09-09T10:14:21;6.97;;;3.05;;
54125;SDS011;40360;52.992;6.796;2022-09-09T10:19:42;6.53;;;2.90;;
54125;SDS011;40360;52.992;6.796;2022-09-09T10:22:33;8.10;;;3.63;;
54125;SDS011;40360;52.992;6.796;2022-09-09T10:27:46;9.60;;;2.72;;
54125;SDS011;40360;52.992;6.796;2022-09-09T10:33:21;9.35;;;3.58;;
54125;SDS011;40360;52.992;6.796;2022-09-09T10:36:21;9.15;;;2.40;;
54125;SDS011;40360;52.992;6.796;2022-09-09T10:39:33;5.78;;;2.17;;
54125;SDS011;40360;52.992;6.796;2022-09-09T10:55:40;9.63;;;2.22;;
54125;SDS011;40360;52.992;6.796;2022-09-09T10:58:10;6.28;;;2.10;;
54125;SDS011;40360;52.992;6.796;2022-09-09T11:00:59;6.30;;;2.65;;
54125;SDS011;40360;52.992;6.796;2022-09-09T11:03:31;4.25;;;2.20;;
54125;SDS011;40360;52.992;6.796;2022-09-09T11:06:05;8.23;;;2.50;;
54125;SDS011;40360;52.992;6.796;2022-09-09T11:08:35;7.65;;;2.58;;
54125;SDS011;40360;52.992;6.796;2022-09-09T11:11:18;7.80;;;3.40;;
54125;SDS011;40360;52.992;6.796;2022-09-09T11:21:53;8.30;;;2.78;;
54125;SDS011;40360;52.992;6.796;2022-09-09T11:24:25;7.88;;;2.30;;
54125;SDS011;40360;52.992;6.796;2022-09-09T11:26:57;6.72;;;2.20;;
54125;SDS011;40360;52.992;6.796;2022-09-09T11:35:19;5.90;;;2.00;;
54125;SDS011;40360;52.992;6.796;2022-09-09T11:40:46;5.60;;;1.55;;
54125;SDS011;40360;52.992;6.796;2022-09-09T11:43:27;6.75;;;2.60;;
54125;SDS011;40360;52.992;6.796;2022-09-09T11:45:57;7.30;;;2.13;;
54125;SDS011;40360;52.992;6.796;2022-09-09T11:48:29;7.55;;;2.28;;
54125;SDS011;40360;52.992;6.796;2022-09-09T11:54:32;5.53;;;1.77;;
54125;SDS011;40360;52.992;6.796;2022-09-09T11:56:54;6.18;;;2.45;;
54125;SDS011;40360;52.992;6.796;2022-09-09T11:59:21;10.43;;;2.50;;
54125;SDS011;40360;52.992;6.796;2022-09-09T12:02:02;4.72;;;1.92;;
54125;SDS011;40360;52.992;6.796;2022-09-09T12:05:05;10.52;;;3.13;;
54125;SDS011;40360;52.992;6.796;2022-09-09T12:07:40;6.45;;;2.00;;
54125;SDS011;40360;52.992;6.796;2022-09-09T12:12:47;12.43;;;2.13;;
54125;SDS011;40360;52.992;6.796;2022-09-09T12:17:46;6.57;;;1.92;;
54125;SDS011;40360;52.992;6.796;2022-09-09T12:20:20;6.18;;;2.40;;
54125;SDS011;40360;52.992;6.796;2022-09-09T12:33:43;7.40;;;2.13;;
54125;SDS011;40360;52.992;6.796;2022-09-09T12:36:23;5.60;;;1.50;;
54125;SDS011;40360;52.992;6.796;2022-09-09T12:38:55;4.75;;;1.60;;
54125;SDS011;40360;52.992;6.796;2022-09-09T12:41:25;7.50;;;1.90;;
54125;SDS011;40360;52.992;6.796;2022-09-09T12:44:03;5.03;;;1.75;;
54125;SDS011;40360;52.992;6.796;2022-09-09T12:46:38;7.75;;;2.03;;
54125;SDS011;40360;52.992;6.796;2022-09-09T12:54:58;5.13;;;1.55;;
54125;SDS011;40360;52.992;6.796;2022-09-09T12:57:26;3.67;;;1.33;;
54125;SDS011;40360;52.992;6.796;2022-09-09T13:00:05;4.13;;;1.70;;
54125;SDS011;40360;52.992;6.796;2022-09-09T13:02:54;8.82;;;2.33;;
54125;SDS011;40360;52.992;6.796;2022-09-09T13:08:00;3.10;;;1.42;;
54125;SDS011;40360;52.992;6.796;2022-09-09T13:10:28;8.47;;;2.37;;
54125;SDS011;40360;52.992;6.796;2022-09-09T13:12:57;4.68;;;1.48;;
54125;SDS011;40360;52.992;6.796;2022-09-09T13:15:23;4.57;;;1.73;;
54125;SDS011;40360;52.992;6.796;2022-09-09T13:17:56;4.47;;;1.50;;
54125;SDS011;40360;52.992;6.796;2022-09-09T13:20:25;4.05;;;1.80;;
54125;SDS011;40360;52.992;6.796;2022-09-09T13:22:53;5.63;;;1.75;;
54125;SDS011;40360;52.992;6.796;2022-09-09T13:25:24;5.30;;;1.30;;
54125;SDS011;40360;52.992;6.796;2022-09-09T13:28:01;6.10;;;1.55;;
54125;SDS011;40360;52.992;6.796;2022-09-09T13:35:45;4.15;;;1.48;;
54125;SDS011;40360;52.992;6.796;2022-09-09T13:38:13;5.07;;;1.70;;
54125;SDS011;40360;52.992;6.796;2022-09-09T13:40:40;4.32;;;1.38;;
54125;SDS011;40360;52.992;6.796;2022-09-09T13:43:18;4.65;;;1.85;;
54125;SDS011;40360;52.992;6.796;2022-09-09T13:45:54;4.15;;;1.73;;
54125;SDS011;40360;52.992;6.796;2022-09-09T13:48:29;7.95;;;1.80;;
54125;SDS011;40360;52.992;6.796;2022-09-09T13:51:03;4.18;;;1.38;;
54125;SDS011;40360;52.992;6.796;2022-09-09T13:53:32;5.03;;;1.73;;
54125;SDS011;40360;52.992;6.796;2022-09-09T13:55:58;5.75;;;1.92;;
54125;SDS011;40360;52.992;6.796;2022-09-09T13:58:23;6.95;;;2.30;;
54125;SDS011;40360;52.992;6.796;2022-09-09T14:00:50;4.57;;;1.75;;
54125;SDS011;40360;52.992;6.796;2022-09-09T14:03:17;6.45;;;1.42;;
54125;SDS011;40360;52.992;6.796;2022-09-09T14:05:43;7.82;;;2.15;;
54125;SDS011;40360;52.992;6.796;2022-09-09T14:08:11;5.47;;;1.80;;
54125;SDS011;40360;52.992;6.796;2022-09-09T14:10:43;3.53;;;1.60;;
54125;SDS011;40360;52.992;6.796;2022-09-09T14:13:09;4.47;;;1.90;;
54125;SDS011;40360;52.992;6.796;2022-09-09T14:15:34;5.25;;;1.52;;
54125;SDS011;40360;52.992;6.796;2022-09-09T14:18:00;9.30;;;2.13;;
54125;SDS011;40360;52.992;6.796;2022-09-09T14:20:27;6.85;;;1.90;;
54125;SDS011;40360;52.992;6.796;2022-09-09T14:22:52;3.05;;;1.05;;
54125;SDS011;40360;52.992;6.796;2022-09-09T14:25:18;5.95;;;1.65;;
54125;SDS011;40360;52.992;6.796;2022-09-09T14:27:44;6.15;;;1.38;;
54125;SDS011;40360;52.992;6.796;2022-09-09T14:30:10;5.35;;;1.45;;
54125;SDS011;40360;52.992;6.796;2022-09-09T14:32:38;2.95;;;1.20;;
54125;SDS011;40360;52.992;6.796;2022-09-09T14:35:03;3.00;;;1.15;;
54125;SDS011;40360;52.992;6.796;2022-09-09T14:37:29;2.83;;;1.17;;
54125;SDS011;40360;52.992;6.796;2022-09-09T14:39:56;3.50;;;1.40;;
54125;SDS011;40360;52.992;6.796;2022-09-09T14:42:22;4.45;;;1.45;;
54125;SDS011;40360;52.992;6.796;2022-09-09T14:44:48;3.70;;;1.38;;
54125;SDS011;40360;52.992;6.796;2022-09-09T14:47:14;4.10;;;1.33;;
54125;SDS011;40360;52.992;6.796;2022-09-09T14:49:39;1.35;;;0.60;;
54125;SDS011;40360;52.992;6.796;2022-09-09T14:52:05;4.22;;;0.65;;
54125;SDS011;40360;52.992;6.796;2022-09-09T14:54:31;0.85;;;0.50;;
54125;SDS011;40360;52.992;6.796;2022-09-09T14:56:57;2.97;;;0.65;;
54125;SDS011;40360;52.992;6.796;2022-09-09T14:59:23;2.35;;;0.95;;
54125;SDS011;40360;52.992;6.796;2022-09-09T15:01:49;2.95;;;1.13;;
54125;SDS011;40360;52.992;6.796;2022-09-09T15:04:15;2.40;;;0.90;;
54125;SDS011;40360;52.992;6.796;2022-09-09T15:06:42;3.10;;;1.20;;
54125;SDS011;40360;52.992;6.796;2022-09-09T15:09:09;3.20;;;0.90;;
54125;SDS011;40360;52.992;6.796;2022-09-09T15:11:36;2.83;;;1.00;;
54125;SDS011;40360;52.992;6.796;2022-09-09T15:14:03;1.48;;;0.68;;
54125;SDS011;40360;52.992;6.796;2022-09-09T15:16:29;2.63;;;1.02;;
54125;SDS011;40360;52.992;6.796;2022-09-09T15:18:57;1.25;;;0.95;;
54125;SDS011;40360;52.992;6.796;2022-09-09T15:21:29;1.92;;;0.90;;
54125;SDS011;40360;52.992;6.796;2022-09-09T15:23:56;3.30;;;1.10;;
54125;SDS011;40360;52.992;6.796;2022-09-09T15:26:22;3.03;;;1.15;;
54125;SDS011;40360;52.992;6.796;2022-09-09T15:28:48;2.40;;;0.88;;
54125;SDS011;40360;52.992;6.796;2022-09-09T15:31:19;2.35;;;1.25;;
54125;SDS011;40360;52.992;6.796;2022-09-09T15:33:47;4.70;;;1.30;;
54125;SDS011;40360;52.992;6.796;2022-09-09T15:36:14;4.60;;;1.50;;
54125;SDS011;40360;52.992;6.796;2022-09-09T15:38:48;2.05;;;1.17;;
54125;SDS011;40360;52.992;6.796;2022-09-09T15:41:14;2.85;;;1.13;;
54125;SDS011;40360;52.992;6.796;2022-09-09T15:43:44;2.78;;;1.38;;
54125;SDS011;40360;52.992;6.796;2022-09-09T15:46:33;3.13;;;1.25;;
54125;SDS011;40360;52.992;6.796;2022-09-09T15:49:06;3.25;;;1.30;;
54125;SDS011;40360;52.992;6.796;2022-09-09T15:51:35;3.65;;;1.50;;
54125;SDS011;40360;52.992;6.796;2022-09-09T15:54:02;1.70;;;1.40;;
54125;SDS011;40360;52.992;6.796;2022-09-09T15:56:29;6.22;;;1.60;;
54125;SDS011;40360;52.992;6.796;2022-09-09T15:58:56;3.60;;;1.40;;
54125;SDS011;40360;52.992;6.796;2022-09-09T16:01:22;3.97;;;1.23;;
54125;SDS011;40360;52.992;6.796;2022-09-09T16:03:48;3.72;;;1.50;;
54125;SDS011;40360;52.992;6.796;2022-09-09T16:06:16;3.53;;;1.42;;
54125;SDS011;40360;52.992;6.796;2022-09-09T16:08:44;5.05;;;1.48;;
54125;SDS011;40360;52.992;6.796;2022-09-09T16:11:12;3.58;;;1.77;;
54125;SDS011;40360;52.992;6.796;2022-09-09T16:13:40;4.28;;;1.60;;
54125;SDS011;40360;52.992;6.796;2022-09-09T16:16:07;2.55;;;1.92;;
54125;SDS011;40360;52.992;6.796;2022-09-09T16:18:35;4.72;;;2.17;;
54125;SDS011;40360;52.992;6.796;2022-09-09T16:21:03;3.08;;;2.05;;
54125;SDS011;40360;52.992;6.796;2022-09-09T16:23:30;4.57;;;1.88;;
54125;SDS011;40360;52.992;6.796;2022-09-09T16:25:57;4.10;;;2.40;;
54125;SDS011;40360;52.992;6.796;2022-09-09T16:28:23;4.07;;;1.77;;
54125;SDS011;40360;52.992;6.796;2022-09-09T16:30:49;3.85;;;1.70;;
54125;SDS011;40360;52.992;6.796;2022-09-09T16:33:15;5.82;;;2.15;;
54125;SDS011;40360;52.992;6.796;2022-09-09T16:35:41;4.85;;;2.10;;
54125;SDS011;40360;52.992;6.796;2022-09-09T16:38:07;3.10;;;1.55;;
54125;SDS011;40360;52.992;6.796;2022-09-09T16:40:34;3.50;;;1.70;;
54125;SDS011;40360;52.992;6.796;2022-09-09T16:43:00;4.13;;;2.13;;
54125;SDS011;40360;52.992;6.796;2022-09-09T16:45:26;3.95;;;1.83;;
54125;SDS011;40360;52.992;6.796;2022-09-09T16:47:52;3.83;;;1.40;;
54125;SDS011;40360;52.992;6.796;2022-09-09T16:50:18;2.58;;;1.77;;
54125;SDS011;40360;52.992;6.796;2022-09-09T16:52:44;2.50;;;1.50;;
54125;SDS011;40360;52.992;6.796;2022-09-09T16:55:09;4.53;;;2.05;;
54125;SDS011;40360;52.992;6.796;2022-09-09T16:57:35;2.75;;;1.63;;
54125;SDS011;40360;52.992;6.796;2022-09-09T17:00:00;4.13;;;1.48;;
54125;SDS011;40360;52.992;6.796;2022-09-09T17:02:29;2.90;;;1.70;;
54125;SDS011;40360;52.992;6.796;2022-09-09T17:04:55;5.35;;;1.98;;
54125;SDS011;40360;52.992;6.796;2022-09-09T17:07:20;8.52;;;2.28;;
54125;SDS011;40360;52.992;6.796;2022-09-09T17:09:47;4.32;;;2.00;;
54125;SDS011;40360;52.992;6.796;2022-09-09T17:12:13;5.10;;;2.20;;
54125;SDS011;40360;52.992;6.796;2022-09-09T17:14:39;5.65;;;1.98;;
54125;SDS011;40360;52.992;6.796;2022-09-09T17:17:05;4.50;;;2.08;;
54125;SDS011;40360;52.992;6.796;2022-09-09T17:19:30;5.75;;;2.00;;
54125;SDS011;40360;52.992;6.796;2022-09-09T17:21:56;4.43;;;2.42;;
54125;SDS011;40360;52.992;6.796;2022-09-09T17:24:24;5.03;;;2.38;;
54125;SDS011;40360;52.992;6.796;2022-09-09T17:26:51;4.15;;;1.80;;